Time;durP1;ratioP1;P1;durP2;ratioP2;P2;SDS_P1;SDS_P2;PMS_P1;PMS_P2;Temp;Humidity;BMP_temperature;BMP_pressure;BME280_temperature;BME280_humidity;BME280_pressure;Samples;Min_cycle;Max_cycle;Signal;HPM_P1;HPM_P2
2022/05/21 00:00:22;;;;;;;8.82;2.45;;;21.80;58.00;;;;;;5021398;28;20029;-60
2022/05/21 00:02:48;;;;;;;9.75;2.28;;;21.70;57.70;;;;;;4997876;28;20084;-59
2022/05/21 00:05:15;;;;;;;10.27;2.47;;;21.70;57.60;;;;;;5019687;28;20694;-60
2022/05/21 00:07:42;;;;;;;8.35;2.20;;;21.70;57.70;;;;;;5020470;28;20059;-61
2022/05/21 00:10:07;;;;;;;11.30;3.03;;;21.70;58.00;;;;;;5020506;28;20037;-60
2022/05/21 00:12:33;;;;;;;12.63;2.60;;;21.70;58.00;;;;;;5021582;28;20033;-60
2022/05/21 00:14:59;;;;;;;7.45;2.08;;;21.70;58.00;;;;;;5022216;28;20421;-60
2022/05/21 00:17:25;;;;;;;11.05;2.50;;;21.70;58.40;;;;;;5023662;28;20074;-59
2022/05/21 00:19:50;;;;;;;9.80;2.28;;;21.70;58.30;;;;;;5014631;28;20045;-60
2022/05/21 00:22:16;;;;;;;10.15;2.20;;;21.70;58.00;;;;;;5015671;28;20025;-60
2022/05/21 00:24:42;;;;;;;8.48;2.20;;;21.70;57.90;;;;;;5021028;28;20053;-60
2022/05/21 00:27:07;;;;;;;12.50;2.47;;;21.70;57.90;;;;;;5020085;28;20475;-60
2022/05/21 00:29:33;;;;;;;8.35;1.98;;;21.70;58.00;;;;;;5018027;28;20041;-60
2022/05/21 00:31:59;;;;;;;8.68;2.47;;;21.60;57.90;;;;;;5022060;28;20049;-60
2022/05/21 00:34:25;;;;;;;6.68;2.03;;;21.60;57.90;;;;;;5033933;28;20050;-60
2022/05/21 00:36:50;;;;;;;7.72;2.10;;;21.60;57.90;;;;;;5032300;28;20490;-60
2022/05/21 00:39:16;;;;;;;7.13;1.92;;;21.60;57.90;;;;;;5038065;28;20017;-60
2022/05/21 00:41:42;;;;;;;11.05;2.53;;;21.60;58.00;;;;;;5033259;28;20025;-61
2022/05/21 00:44:08;;;;;;;7.25;2.25;;;21.60;58.30;;;;;;5036194;28;20207;-59
2022/05/21 00:46:37;;;;;;;7.60;1.98;;;21.60;58.10;;;;;;5035703;28;20146;-60
2022/05/21 00:49:20;;;;;;;9.93;2.42;;;21.60;58.00;;;;;;5031423;28;20029;-60
2022/05/21 00:51:56;;;;;;;7.35;2.05;;;21.60;58.00;;;;;;5030997;28;20080;-60
2022/05/21 00:54:24;;;;;;;9.85;2.20;;;21.60;58.00;;;;;;5036196;28;20036;-60
2022/05/21 00:56:56;;;;;;;8.05;1.90;;;21.50;58.00;;;;;;5036484;28;20024;-60
2022/05/21 01:02:06;;;;;;;9.30;2.38;;;21.50;58.00;;;;;;5030370;28;20555;-59
2022/05/21 01:04:32;;;;;;;9.27;2.28;;;21.50;58.00;;;;;;5035079;28;20041;-60
2022/05/21 01:06:59;;;;;;;7.85;2.22;;;21.50;57.90;;;;;;5035401;28;20528;-60
2022/05/21 01:09:24;;;;;;;9.07;2.50;;;21.50;57.90;;;;;;5028911;28;20665;-60
2022/05/21 01:11:50;;;;;;;9.25;2.50;;;21.50;57.90;;;;;;5040063;28;20043;-60
2022/05/21 01:14:16;;;;;;;7.75;2.25;;;21.50;57.90;;;;;;5039871;28;20044;-60
2022/05/21 01:16:42;;;;;;;10.10;2.42;;;21.40;57.90;;;;;;5054837;28;20017;-60
2022/05/21 01:19:08;;;;;;;9.00;2.20;;;21.40;57.90;;;;;;5033212;28;20037;-60
2022/05/21 01:21:35;;;;;;;7.80;2.20;;;21.40;57.80;;;;;;5033631;28;20037;-60
2022/05/21 01:24:01;;;;;;;7.55;2.03;;;21.50;57.90;;;;;;5033226;28;20045;-60
2022/05/21 01:26:27;;;;;;;8.23;1.90;;;21.40;57.80;;;;;;5033291;28;20052;-60
2022/05/21 01:28:52;;;;;;;7.78;2.10;;;21.40;57.80;;;;;;5038498;28;20037;-60
2022/05/21 01:31:18;;;;;;;8.10;2.10;;;21.40;57.80;;;;;;5040794;28;20013;-60
2022/05/21 01:33:44;;;;;;;6.30;1.95;;;21.40;57.90;;;;;;5032204;28;20057;-60
2022/05/21 01:36:10;;;;;;;9.48;2.25;;;21.40;57.90;;;;;;5035337;28;20477;-60
2022/05/21 01:38:36;;;;;;;6.40;1.92;;;21.40;57.90;;;;;;5031466;28;20037;-60
2022/05/21 01:41:02;;;;;;;7.53;2.10;;;21.40;57.90;;;;;;5032658;28;20029;-60
2022/05/21 01:46:12;;;;;;;7.80;2.10;;;21.40;57.90;;;;;;5034214;28;20052;-60
2022/05/21 01:48:38;;;;;;;8.82;2.10;;;21.30;57.90;;;;;;5036946;28;20675;-60
2022/05/21 01:51:06;;;;;;;7.10;1.85;;;21.30;58.00;;;;;;5034250;28;20025;-60
2022/05/21 01:53:32;;;;;;;8.43;2.22;;;21.30;58.00;;;;;;5036635;28;20520;-60
2022/05/21 01:55:59;;;;;;;5.97;1.90;;;21.30;57.90;;;;;;5031582;28;20051;-60
2022/05/21 01:58:26;;;;;;;8.23;2.25;;;21.30;57.90;;;;;;5030623;28;20026;-60
2022/05/21 02:00:52;;;;;;;7.10;2.08;;;21.30;57.90;;;;;;5035343;28;20075;-60
2022/05/21 02:03:18;;;;;;;8.80;1.90;;;21.30;57.80;;;;;;5039899;28;20108;-61
2022/05/21 02:05:47;;;;;;;6.57;1.90;;;21.30;57.80;;;;;;5030550;28;20136;-60
2022/05/21 02:08:13;;;;;;;6.97;2.13;;;21.30;57.80;;;;;;5031426;28;20029;-60
2022/05/21 02:10:39;;;;;;;5.97;1.90;;;21.30;57.80;;;;;;5033393;28;20061;-60
2022/05/21 02:13:05;;;;;;;5.70;1.70;;;21.30;57.90;;;;;;5034101;28;20021;-60
2022/05/21 02:15:31;;;;;;;6.63;1.92;;;21.30;57.90;;;;;;5035408;28;20552;-60
2022/05/21 02:17:57;;;;;;;7.78;1.88;;;21.20;57.90;;;;;;5043644;28;20021;-60
2022/05/21 02:20:22;;;;;;;7.03;2.15;;;21.20;57.80;;;;;;5034679;28;20038;-60
2022/05/21 02:22:48;;;;;;;7.05;1.95;;;21.20;58.90;;;;;;5035678;28;20048;-60
2022/05/21 02:25:16;;;;;;;6.68;2.00;;;21.20;57.90;;;;;;5032090;28;20041;-60
2022/05/21 02:27:45;;;;;;;7.53;2.08;;;21.20;57.90;;;;;;5035150;28;20025;-60
2022/05/21 02:30:11;;;;;;;7.78;2.00;;;21.20;57.90;;;;;;5034378;28;20524;-60
2022/05/21 02:32:37;;;;;;;6.05;1.80;;;21.20;57.90;;;;;;5037615;28;20026;-60
2022/05/21 02:35:02;;;;;;;7.50;2.00;;;21.20;57.90;;;;;;5038161;28;20099;-60
2022/05/21 02:40:13;;;;;;;7.77;1.97;;;21.20;57.90;;;;;;5032495;28;20060;-60
2022/05/21 02:42:48;;;;;;;9.32;2.33;;;21.20;59.00;;;;;;5038730;28;20026;-60
2022/05/21 02:45:25;;;;;;;5.03;1.83;;;21.20;57.90;;;;;;5033742;28;20037;-60
2022/05/21 02:47:51;;;;;;;6.18;1.90;;;21.10;57.90;;;;;;5033594;28;20049;-61
2022/05/21 02:50:19;;;;;;;8.45;2.00;;;21.10;58.00;;;;;;5039345;28;20033;-60
2022/05/21 02:52:44;;;;;;;6.38;1.90;;;21.10;58.00;;;;;;5040657;28;20028;-60
2022/05/21 02:55:10;;;;;;;7.50;2.08;;;21.10;57.90;;;;;;5036520;28;20033;-60
2022/05/21 02:57:36;;;;;;;5.85;1.90;;;21.10;58.00;;;;;;5036321;28;20073;-60
2022/05/21 03:00:09;;;;;;;7.30;2.00;;;21.10;58.00;;;;;;5035320;28;22560;-60
2022/05/21 03:02:35;;;;;;;6.32;1.80;;;21.10;58.00;;;;;;5034040;28;20040;-60
2022/05/21 03:05:03;;;;;;;5.90;2.10;;;21.10;58.00;;;;;;5036644;28;20033;-60
2022/05/21 03:07:29;;;;;;;7.05;2.10;;;21.10;58.00;;;;;;5037949;28;20048;-60
2022/05/21 03:12:39;;;;;;;7.95;1.90;;;21.10;58.00;;;;;;5038190;28;20044;-60
2022/05/21 03:15:05;;;;;;;5.45;1.60;;;21.00;57.90;;;;;;5037521;28;20679;-60
2022/05/21 03:17:31;;;;;;;5.35;1.75;;;21.00;57.90;;;;;;5039143;28;20033;-60
2022/05/21 03:19:57;;;;;;;5.63;1.83;;;21.00;59.00;;;;;;5030136;28;20721;-60
2022/05/21 03:22:22;;;;;;;6.25;1.83;;;21.00;58.00;;;;;;5039777;28;20029;-60
2022/05/21 03:24:48;;;;;;;6.15;1.63;;;21.00;58.00;;;;;;5040281;28;20037;-60
2022/05/21 03:27:13;;;;;;;5.13;1.70;;;21.00;58.00;;;;;;5034811;28;20159;-60
2022/05/21 03:29:39;;;;;;;5.93;1.90;;;21.00;58.00;;;;;;5036229;28;20498;-60
2022/05/21 03:32:07;;;;;;;5.57;2.13;;;21.00;58.00;;;;;;5033348;28;20030;-60
2022/05/21 03:34:32;;;;;;;7.57;2.05;;;21.00;58.10;;;;;;5036322;28;20544;-60
2022/05/21 03:36:59;;;;;;;6.55;1.70;;;21.00;58.00;;;;;;5036461;28;20076;-60
2022/05/21 03:39:25;;;;;;;8.50;1.85;;;21.00;58.00;;;;;;5043395;28;20036;-60
2022/05/21 03:41:50;;;;;;;7.00;1.73;;;21.00;58.00;;;;;;5035539;28;20025;-60
2022/05/21 03:44:16;;;;;;;6.05;1.88;;;21.00;58.10;;;;;;5035214;28;20530;-60
2022/05/21 03:46:41;;;;;;;5.65;1.67;;;21.00;58.20;;;;;;5044091;28;20624;-61
2022/05/21 03:49:07;;;;;;;4.60;1.60;;;21.00;58.10;;;;;;5032876;28;20036;-60
2022/05/21 03:51:33;;;;;;;7.05;2.10;;;21.00;58.10;;;;;;5029373;28;20038;-60
2022/05/21 03:53:59;;;;;;;4.53;1.63;;;20.90;58.10;;;;;;5042161;28;20029;-60
2022/05/21 03:56:24;;;;;;;5.28;1.70;;;20.90;58.10;;;;;;5037076;28;20104;-60
2022/05/21 03:58:50;;;;;;;5.88;1.60;;;20.90;58.10;;;;;;5035804;28;20032;-60
2022/05/21 04:01:16;;;;;;;4.13;1.42;;;20.90;58.10;;;;;;5036789;28;20021;-60
2022/05/21 04:03:42;;;;;;;7.50;1.70;;;20.90;58.10;;;;;;5031774;28;20037;-60
2022/05/21 04:06:07;;;;;;;5.95;1.75;;;20.90;58.20;;;;;;5038999;28;20167;-60
2022/05/21 04:08:33;;;;;;;6.07;1.70;;;20.90;58.20;;;;;;5038762;28;20029;-60
2022/05/21 04:10:59;;;;;;;6.65;1.95;;;20.90;58.30;;;;;;5065828;28;20684;-60
2022/05/21 04:13:26;;;;;;;6.90;1.90;;;20.90;58.20;;;;;;5032299;28;20074;-60
2022/05/21 04:15:51;;;;;;;4.47;1.77;;;20.80;58.10;;;;;;5038364;28;20105;-60
2022/05/21 04:18:18;;;;;;;5.60;1.83;;;20.80;58.20;;;;;;5033695;28;20108;-60
2022/05/21 04:20:43;;;;;;;5.90;2.00;;;20.80;58.10;;;;;;5031859;28;20040;-61
2022/05/21 04:23:09;;;;;;;4.25;1.45;;;20.80;58.10;;;;;;5036385;28;20038;-60
2022/05/21 04:25:35;;;;;;;5.35;1.65;;;20.80;58.10;;;;;;5034293;28;20185;-60
2022/05/21 04:28:01;;;;;;;5.88;1.70;;;20.80;58.20;;;;;;5036482;28;20100;-60
2022/05/21 04:30:28;;;;;;;5.75;1.50;;;20.80;58.20;;;;;;5033083;28;20029;-60
2022/05/21 04:32:54;;;;;;;6.32;1.83;;;20.80;58.10;;;;;;5036178;28;20565;-60
2022/05/21 04:35:20;;;;;;;5.70;1.77;;;20.80;58.20;;;;;;5036127;28;20027;-60
2022/05/21 04:37:46;;;;;;;5.30;1.65;;;20.80;58.20;;;;;;5033319;28;20104;-60
2022/05/21 04:40:14;;;;;;;4.20;1.60;;;20.70;58.10;;;;;;5032323;28;20036;-60
2022/05/21 04:42:40;;;;;;;4.97;1.60;;;20.80;58.30;;;;;;5034338;28;20033;-60
2022/05/21 04:45:06;;;;;;;6.63;1.58;;;20.80;58.30;;;;;;5034104;28;20486;-60
2022/05/21 04:47:32;;;;;;;5.68;1.60;;;20.80;58.30;;;;;;5032580;28;20107;-60
2022/05/21 04:49:57;;;;;;;6.25;1.73;;;20.80;58.40;;;;;;5037515;28;20433;-60
2022/05/21 04:52:23;;;;;;;4.82;1.50;;;20.70;58.30;;;;;;5033758;28;20457;-60
2022/05/21 04:54:49;;;;;;;5.97;1.83;;;20.70;58.30;;;;;;5042320;28;20029;-60
2022/05/21 04:57:14;;;;;;;6.05;1.90;;;20.70;58.30;;;;;;5043785;28;20029;-60
2022/05/21 04:59:40;;;;;;;5.85;1.63;;;20.70;58.30;;;;;;5034606;28;20072;-60
2022/05/21 05:02:06;;;;;;;4.88;1.58;;;20.70;58.30;;;;;;5032848;28;20033;-59
2022/05/21 05:04:32;;;;;;;4.30;1.38;;;20.70;58.30;;;;;;5031886;28;20128;-60
2022/05/21 05:06:58;;;;;;;6.35;1.67;;;20.70;58.30;;;;;;5037618;28;20113;-60
2022/05/21 05:09:24;;;;;;;6.38;1.85;;;20.70;58.30;;;;;;5032426;28;20121;-60
2022/05/21 05:11:51;;;;;;;5.55;1.45;;;20.70;58.30;;;;;;5034516;28;20463;-60
2022/05/21 05:14:18;;;;;;;4.97;1.50;;;20.60;58.20;;;;;;5036600;28;20041;-60
2022/05/21 05:16:43;;;;;;;5.05;1.50;;;20.70;58.30;;;;;;5039580;28;20030;-60
2022/05/21 05:19:09;;;;;;;4.40;1.40;;;20.60;58.40;;;;;;5034343;28;20094;-60
2022/05/21 05:21:35;;;;;;;4.75;1.58;;;20.60;58.10;;;;;;5032556;28;20514;-60
2022/05/21 05:24:01;;;;;;;6.57;1.55;;;20.60;58.00;;;;;;5035960;28;20039;-60
2022/05/21 05:26:26;;;;;;;7.60;1.75;;;20.70;58.10;;;;;;5032361;28;20043;-60
2022/05/21 05:28:52;;;;;;;9.15;1.92;;;20.70;58.70;;;;;;5035246;28;20018;-60
2022/05/21 05:31:18;;;;;;;9.45;1.90;;;20.70;58.90;;;;;;5034043;28;20033;-60
2022/05/21 05:33:43;;;;;;;8.02;2.17;;;20.60;58.90;;;;;;5034671;28;20029;-60
2022/05/21 05:36:09;;;;;;;6.63;1.80;;;20.70;59.10;;;;;;5034526;28;20042;-60
2022/05/21 05:38:35;;;;;;;7.35;1.70;;;20.60;59.00;;;;;;5031738;28;20022;-61
2022/05/21 05:41:01;;;;;;;12.20;2.67;;;20.60;59.10;;;;;;5035475;28;20068;-61
2022/05/21 05:43:27;;;;;;;9.88;2.47;;;20.60;59.00;;;;;;5032310;28;20025;-60
2022/05/21 05:45:58;;;;;;;9.90;2.22;;;20.60;58.90;;;;;;5033960;28;20040;-60
2022/05/21 05:48:25;;;;;;;10.88;2.13;;;20.60;59.00;;;;;;5039727;28;20025;-61
2022/05/21 05:50:50;;;;;;;8.77;2.22;;;20.60;59.20;;;;;;5038724;28;20037;-60
2022/05/21 05:53:16;;;;;;;10.43;2.42;;;20.60;59.20;;;;;;5038815;28;20084;-60
2022/05/21 05:55:42;;;;;;;10.00;2.35;;;20.60;59.30;;;;;;5038676;28;20026;-61
2022/05/21 06:00:54;;;;;;;15.40;3.08;;;20.60;59.20;;;;;;5033741;28;20044;-60
2022/05/21 06:03:21;;;;;;;18.88;2.72;;;20.60;59.10;;;;;;5041157;28;20025;-61
2022/05/21 06:05:47;;;;;;;14.38;3.10;;;20.50;59.00;;;;;;5037660;28;20124;-60
2022/05/21 06:08:13;;;;;;;11.63;2.67;;;20.50;59.00;;;;;;5033606;28;20112;-60
2022/05/21 06:10:40;;;;;;;12.65;2.70;;;20.50;59.20;;;;;;5036040;28;20033;-61
2022/05/21 06:13:06;;;;;;;17.23;3.35;;;20.50;59.50;;;;;;5036973;28;20084;-60
2022/05/21 06:15:32;;;;;;;15.35;3.00;;;20.50;59.40;;;;;;5037434;28;20075;-60
2022/05/21 06:17:58;;;;;;;17.90;3.50;;;20.50;59.30;;;;;;5042053;28;20471;-61
2022/05/21 06:20:26;;;;;;;17.08;3.78;;;20.50;59.20;;;;;;5044874;28;20043;-61
2022/05/21 06:22:51;;;;;;;14.18;3.10;;;20.40;59.30;;;;;;5068349;28;20063;-60
2022/05/21 06:25:19;;;;;;;14.57;3.05;;;20.50;59.40;;;;;;5035143;28;20045;-61
2022/05/21 06:27:46;;;;;;;18.13;3.10;;;20.50;59.50;;;;;;5036451;28;20030;-61
2022/05/21 06:30:12;;;;;;;14.23;2.97;;;20.50;59.40;;;;;;5040042;28;20025;-60
2022/05/21 06:32:37;;;;;;;15.20;3.20;;;20.50;59.40;;;;;;5041913;28;20025;-61
2022/05/21 06:35:04;;;;;;;11.63;2.80;;;20.50;59.50;;;;;;5034515;28;20037;-61
2022/05/21 06:37:30;;;;;;;13.50;2.92;;;20.50;59.50;;;;;;5034998;28;20017;-60
2022/05/21 06:39:55;;;;;;;16.52;3.00;;;20.60;59.60;;;;;;5045040;28;20048;-60
2022/05/21 06:42:21;;;;;;;16.15;3.10;;;20.60;59.50;;;;;;5033281;28;20032;-60
2022/05/21 06:44:47;;;;;;;12.13;2.70;;;20.60;59.60;;;;;;5040819;28;20130;-59
2022/05/21 06:47:12;;;;;;;15.70;3.28;;;20.60;59.50;;;;;;5033119;28;20740;-60
2022/05/21 06:49:38;;;;;;;14.63;2.83;;;20.60;59.50;;;;;;5036317;28;20067;-60
2022/05/21 06:52:04;;;;;;;18.63;3.10;;;20.60;59.50;;;;;;5036179;28;20017;-60
2022/05/21 06:54:29;;;;;;;17.33;3.13;;;20.60;59.50;;;;;;5045627;28;20037;-60
2022/05/21 06:56:55;;;;;;;13.07;2.90;;;20.60;59.60;;;;;;5040005;28;20520;-60
2022/05/21 06:59:21;;;;;;;14.93;2.60;;;20.60;59.50;;;;;;5035543;28;20025;-61
2022/05/21 07:01:47;;;;;;;11.57;2.85;;;20.60;59.50;;;;;;5035728;28;20109;-60
2022/05/21 07:04:16;;;;;;;13.32;2.80;;;20.60;59.50;;;;;;5043602;28;20116;-60
2022/05/21 07:09:26;;;;;;;15.60;2.80;;;20.60;59.50;;;;;;5038560;28;20117;-58
2022/05/21 07:11:51;;;;;;;11.75;2.67;;;20.60;59.50;;;;;;5034929;28;20668;-60
2022/05/21 07:14:18;;;;;;;11.90;2.72;;;20.60;59.60;;;;;;5034579;28;20478;-60
2022/05/21 07:16:44;;;;;;;11.07;2.90;;;20.60;59.50;;;;;;5036821;28;20555;-61
2022/05/21 07:19:10;;;;;;;15.48;3.08;;;20.60;59.50;;;;;;5034359;28;20083;-60
2022/05/21 07:21:36;;;;;;;15.50;3.10;;;20.60;59.50;;;;;;5041856;28;20033;-60
2022/05/21 07:24:01;;;;;;;13.77;2.97;;;20.60;59.50;;;;;;5044719;28;20501;-60
2022/05/21 07:26:28;;;;;;;11.13;2.38;;;20.60;59.50;;;;;;5034030;28;20132;-60
2022/05/21 07:28:53;;;;;;;14.52;2.88;;;20.60;59.50;;;;;;5033798;28;20490;-60
2022/05/21 07:31:19;;;;;;;9.52;2.50;;;20.60;59.50;;;;;;5033484;28;20029;-61
2022/05/21 07:33:45;;;;;;;9.70;2.10;;;20.60;59.50;;;;;;5031623;28;20031;-60
2022/05/21 07:36:11;;;;;;;12.40;2.80;;;20.60;59.50;;;;;;5040770;28;20036;-60
2022/05/21 07:38:36;;;;;;;10.07;2.67;;;20.60;59.60;;;;;;5041705;28;20048;-60
2022/05/21 07:41:02;;;;;;;11.25;2.80;;;20.60;59.60;;;;;;5033364;28;20472;-60
2022/05/21 07:43:30;;;;;;;14.13;2.78;;;20.60;59.60;;;;;;5042014;28;20020;-60
2022/05/21 07:45:58;;;;;;;10.63;2.35;;;20.60;59.60;;;;;;5032419;28;20052;-61
2022/05/21 07:48:24;;;;;;;14.52;2.83;;;20.60;59.60;;;;;;5041801;28;20459;-60
2022/05/21 07:50:55;;;;;;;12.90;2.45;;;20.60;59.60;;;;;;5033671;28;20073;-60
2022/05/21 07:53:26;;;;;;;8.65;2.45;;;20.60;59.60;;;;;;5039017;28;20043;-60
2022/05/21 07:55:53;;;;;;;9.07;2.42;;;20.60;59.60;;;;;;5035151;28;20022;-60
2022/05/21 07:58:19;;;;;;;8.65;2.30;;;20.60;59.70;;;;;;5037360;28;20036;-61
2022/05/21 08:00:45;;;;;;;12.93;2.55;;;20.60;59.60;;;;;;5035624;28;20033;-61
2022/05/21 08:03:10;;;;;;;9.10;2.28;;;20.60;59.50;;;;;;5038577;28;20036;-61
2022/05/21 08:05:40;;;;;;;11.43;2.30;;;20.60;59.50;;;;;;5033274;28;20040;-61
2022/05/21 08:08:06;;;;;;;10.25;2.60;;;20.60;60.40;;;;;;5036396;28;20021;-61
2022/05/21 08:10:31;;;;;;;17.60;8.45;;;20.60;61.30;;;;;;5036570;28;20025;-60
2022/05/21 08:12:57;;;;;;;14.57;5.43;;;20.70;60.00;;;;;;5037965;28;20495;-60
2022/05/21 08:15:23;;;;;;;18.70;4.72;;;20.70;60.20;;;;;;5039416;28;20140;-61
2022/05/21 08:17:49;;;;;;;11.57;3.50;;;20.70;60.30;;;;;;5034756;28;20041;-60
2022/05/21 08:20:15;;;;;;;9.88;3.42;;;20.70;60.30;;;;;;5034575;28;20022;-60
2022/05/21 08:28:09;;;;;;;12.45;3.35;;;20.80;60.20;;;;;;5040949;28;20082;-60
2022/05/21 08:30:35;;;;;;;9.07;3.25;;;20.80;60.20;;;;;;5035657;28;20041;-60
2022/05/21 08:33:06;;;;;;;10.55;3.42;;;20.90;60.10;;;;;;5043459;28;20036;-61
2022/05/21 08:35:32;;;;;;;11.65;3.50;;;20.90;60.10;;;;;;5031922;28;20029;-60
2022/05/21 08:37:58;;;;;;;11.13;3.70;;;20.90;60.10;;;;;;5033564;28;20048;-61
2022/05/21 08:40:50;;;;;;;13.60;3.70;;;20.90;60.10;;;;;;5034507;28;20025;-61
2022/05/21 08:43:22;;;;;;;10.20;3.20;;;20.90;60.00;;;;;;5037908;28;20053;-61
2022/05/21 08:46:15;;;;;;;9.80;2.92;;;21.00;60.00;;;;;;5036285;28;20174;-60
2022/05/21 08:48:43;;;;;;;10.27;3.40;;;21.00;59.90;;;;;;5033530;28;20033;-61
2022/05/21 08:51:13;;;;;;;11.70;3.70;;;21.00;59.90;;;;;;5042125;28;20033;-61
2022/05/21 08:53:44;;;;;;;11.27;3.35;;;21.00;59.80;;;;;;5031309;28;20104;-60
2022/05/21 08:56:09;;;;;;;11.80;2.90;;;21.00;59.40;;;;;;5051286;28;20170;-60
2022/05/21 08:58:45;;;;;;;10.13;3.03;;;20.90;59.40;;;;;;5040074;28;20108;-60
2022/05/21 09:01:11;;;;;;;11.25;2.90;;;21.00;59.60;;;;;;5041076;28;20028;-61
2022/05/21 09:03:37;;;;;;;14.98;3.20;;;21.00;59.60;;;;;;5038069;28;20021;-60
2022/05/21 09:06:18;;;;;;;10.70;2.80;;;21.00;59.50;;;;;;5038013;28;20498;-61
2022/05/21 09:09:12;;;;;;;13.75;3.20;;;21.00;59.40;;;;;;5039094;28;20040;-61
2022/05/21 09:12:00;;;;;;;10.00;3.00;;;21.00;59.40;;;;;;5006564;28;20034;-60
2022/05/21 09:14:36;;;;;;;11.23;3.35;;;21.10;59.40;;;;;;4992352;28;20113;-60
2022/05/21 09:17:02;;;;;;;13.48;3.30;;;21.10;59.30;;;;;;5002130;28;20044;-60
2022/05/21 09:19:35;;;;;;;14.10;2.88;;;21.10;59.20;;;;;;5006333;28;20414;-62
2022/05/21 09:22:10;;;;;;;10.52;3.17;;;21.10;59.20;;;;;;5024245;28;20067;-60
2022/05/21 09:24:38;;;;;;;13.38;3.28;;;21.10;59.20;;;;;;5015787;28;21124;-60
2022/05/21 09:27:05;;;;;;;14.25;2.95;;;21.20;59.20;;;;;;5016962;28;20030;-60
2022/05/21 09:29:34;;;;;;;14.10;3.10;;;21.20;59.20;;;;;;5005793;28;20048;-60
2022/05/21 09:32:14;;;;;;;15.05;3.00;;;21.20;58.90;;;;;;5009496;28;20161;-60
2022/05/21 09:34:40;;;;;;;9.75;2.92;;;21.20;59.00;;;;;;4988629;28;20029;-60
2022/05/21 09:37:14;;;;;;;9.63;2.50;;;21.20;59.00;;;;;;5008094;28;20213;-60
2022/05/21 09:39:40;;;;;;;8.75;2.40;;;21.30;59.10;;;;;;5016778;28;20026;-60
2022/05/21 09:45:22;;;;;;;9.15;2.53;;;21.30;59.30;;;;;;4996609;28;20061;-61
2022/05/21 09:47:49;;;;;;;12.88;2.88;;;21.30;59.00;;;;;;4984713;28;20054;-60
2022/05/21 09:50:15;;;;;;;13.80;3.20;;;21.30;58.90;;;;;;5031692;28;20079;-61
2022/05/21 09:52:42;;;;;;;11.43;2.70;;;21.40;59.00;;;;;;4997895;28;20070;-61
2022/05/21 09:55:37;;;;;;;13.00;3.10;;;21.40;58.90;;;;;;4996626;28;20533;-61
2022/05/21 09:58:09;;;;;;;12.90;2.60;;;21.40;58.80;;;;;;5042421;28;20037;-61
2022/05/21 10:00:36;;;;;;;8.60;2.40;;;21.40;58.90;;;;;;5019624;28;20036;-61
2022/05/21 10:03:03;;;;;;;12.25;2.97;;;21.40;58.90;;;;;;5027610;28;20263;-61
2022/05/21 10:05:48;;;;;;;9.85;2.42;;;21.40;58.90;;;;;;5021172;28;20041;-61
2022/05/21 10:10:59;;;;;;;12.65;2.63;;;21.50;58.80;;;;;;5041793;28;19931;-61
2022/05/21 10:13:49;;;;;;;9.52;2.78;;;21.40;58.70;;;;;;5040322;28;20522;-62
2022/05/21 10:16:23;;;;;;;10.65;2.55;;;21.50;58.70;;;;;;5034030;28;20442;-61
2022/05/21 10:19:03;;;;;;;11.27;2.25;;;21.50;58.70;;;;;;5039518;28;20423;-60
2022/05/21 10:21:49;;;;;;;12.60;2.95;;;21.50;58.70;;;;;;5025507;28;20033;-61
2022/05/21 10:24:19;;;;;;;10.93;2.45;;;21.50;58.70;;;;;;5041859;28;20048;-60
2022/05/21 10:26:55;;;;;;;12.18;2.60;;;21.50;58.70;;;;;;5001187;28;20045;-61
2022/05/21 10:29:36;;;;;;;8.13;2.20;;;21.50;58.70;;;;;;5041023;28;20028;-61
2022/05/21 10:32:47;;;;;;;12.65;2.72;;;21.50;58.70;;;;;;5038886;28;20075;-61
2022/05/21 10:35:34;;;;;;;10.90;2.70;;;21.60;58.60;;;;;;4914739;29;21948;-61
2022/05/21 10:38:12;;;;;;;11.50;2.50;;;21.60;58.60;;;;;;4919292;29;20043;-61
2022/05/21 10:40:45;;;;;;;9.30;2.70;;;21.60;58.50;;;;;;4921674;29;20047;-61
2022/05/21 10:43:21;;;;;;;9.43;2.53;;;21.60;58.50;;;;;;4923280;29;20072;-61
2022/05/21 10:46:15;;;;;;;8.75;2.25;;;21.60;58.40;;;;;;4924802;29;20110;-61
2022/05/21 10:49:12;;;;;;;8.88;2.67;;;21.60;58.40;;;;;;4948403;28;20553;-61
2022/05/21 10:51:53;;;;;;;11.30;2.60;;;21.70;58.30;;;;;;4944327;28;20036;-61
2022/05/21 10:54:31;;;;;;;9.63;2.58;;;21.70;58.20;;;;;;4951943;28;20032;-61
2022/05/21 10:57:07;;;;;;;12.90;3.38;;;21.70;58.30;;;;;;4922306;29;20118;-61
2022/05/21 10:59:45;;;;;;;11.30;2.40;;;21.70;58.20;;;;;;4960718;28;20043;-61
2022/05/21 11:02:32;;;;;;;11.18;2.55;;;21.70;58.20;;;;;;4925894;29;20036;-61
2022/05/21 11:05:25;;;;;;;11.68;2.80;;;21.70;58.10;;;;;;4939850;29;20062;-61
2022/05/21 11:08:15;;;;;;;11.82;2.60;;;21.70;58.10;;;;;;4940880;28;20035;-61
2022/05/21 11:11:00;;;;;;;11.93;2.80;;;21.70;58.00;;;;;;4943972;28;20431;-61
2022/05/21 11:13:43;;;;;;;12.77;2.83;;;21.80;58.10;;;;;;5045497;28;20025;-61
2022/05/21 11:16:17;;;;;;;12.70;3.08;;;21.80;58.10;;;;;;5026147;28;20033;-61
2022/05/21 11:18:45;;;;;;;10.05;2.88;;;21.80;58.10;;;;;;5028949;28;20020;-62
2022/05/21 11:21:31;;;;;;;13.68;3.47;;;21.80;57.90;;;;;;5036598;28;20028;-62
2022/05/21 11:24:29;;;;;;;10.48;3.30;;;21.70;58.10;;;;;;5062980;28;20053;-61
2022/05/21 11:26:59;;;;;;;10.65;3.08;;;21.70;58.00;;;;;;5050464;28;20116;-61
2022/05/21 11:29:42;;;;;;;13.55;3.42;;;21.70;58.00;;;;;;5041163;28;20584;-62
2022/05/21 11:37:47;;;;;;;14.73;4.45;;;21.80;57.80;;;;;;5049493;28;20500;-61
2022/05/21 11:40:50;;;;;;;13.23;4.10;;;21.80;57.80;;;;;;5046653;28;20026;-61
2022/05/21 11:43:19;;;;;;;14.02;4.10;;;21.80;57.70;;;;;;5030405;28;20116;-61
2022/05/21 11:46:04;;;;;;;12.98;3.92;;;21.90;57.80;;;;;;5038107;28;20594;-61
2022/05/21 11:48:30;;;;;;;12.73;3.67;;;21.80;57.70;;;;;;5043591;28;20149;-61
2022/05/21 11:51:17;;;;;;;15.20;4.28;;;21.90;57.70;;;;;;5036074;28;20052;-61
2022/05/21 11:53:44;;;;;;;13.02;3.97;;;21.90;57.70;;;;;;5034707;28;20029;-61
2022/05/21 11:56:11;;;;;;;14.18;4.40;;;21.90;57.70;;;;;;5036002;28;20039;-61
2022/05/21 11:58:58;;;;;;;13.90;4.32;;;21.90;57.60;;;;;;5065275;28;20498;-61
2022/05/21 12:01:39;;;;;;;13.48;3.85;;;21.90;57.60;;;;;;5034624;28;20142;-61
2022/05/21 12:04:24;;;;;;;14.25;4.28;;;21.90;57.60;;;;;;5032691;28;20029;-62
2022/05/21 12:06:50;;;;;;;12.88;4.03;;;22.00;57.70;;;;;;5029572;28;20049;-61
2022/05/21 12:09:25;;;;;;;14.13;3.97;;;22.00;57.70;;;;;;5032206;28;20064;-61
2022/05/21 12:11:50;;;;;;;13.65;4.57;;;22.00;57.60;;;;;;5033308;28;20040;-61
2022/05/21 12:14:25;;;;;;;11.02;3.65;;;22.00;57.60;;;;;;5037077;28;20041;-61
2022/05/21 12:16:59;;;;;;;13.80;4.60;;;22.00;57.50;;;;;;5035189;28;20030;-61
2022/05/21 12:19:46;;;;;;;12.32;4.40;;;22.00;57.50;;;;;;5039125;28;20095;-62
2022/05/21 12:22:31;;;;;;;13.68;4.30;;;22.10;57.60;;;;;;5032096;28;20048;-61
2022/05/21 12:24:57;;;;;;;12.85;4.38;;;22.00;57.50;;;;;;5044870;28;20028;-61
2022/05/21 12:27:26;;;;;;;14.32;4.32;;;22.10;57.50;;;;;;5033314;28;20494;-62
2022/05/21 12:30:04;;;;;;;15.80;4.30;;;22.10;57.50;;;;;;5039321;28;20600;-61
2022/05/21 12:32:30;;;;;;;14.98;4.47;;;22.10;57.40;;;;;;5063945;28;20025;-61
2022/05/21 12:35:42;;;;;;;12.57;4.18;;;22.10;57.40;;;;;;5040084;28;20115;-62
2022/05/21 12:38:19;;;;;;;13.50;4.63;;;22.10;57.40;;;;;;5014198;28;20038;-61
2022/05/21 12:41:04;;;;;;;12.70;4.18;;;22.20;57.40;;;;;;4981751;28;20042;-62
2022/05/21 12:43:45;;;;;;;13.85;4.68;;;22.20;57.30;;;;;;5000222;28;20053;-61
2022/05/21 12:46:21;;;;;;;12.23;4.00;;;22.20;57.70;;;;;;5009602;28;20494;-61
2022/05/21 12:48:46;;;;;;;13.88;3.88;;;22.20;57.30;;;;;;4996900;28;20188;-60
2022/05/21 12:51:30;;;;;;;13.32;4.05;;;22.20;57.10;;;;;;4999681;28;20057;-61
2022/05/21 12:53:57;;;;;;;11.95;3.65;;;22.20;57.10;;;;;;5001328;28;20452;-62
2022/05/21 12:56:35;;;;;;;12.35;4.05;;;22.30;57.10;;;;;;5015761;28;20022;-61
2022/05/21 12:59:06;;;;;;;12.10;3.65;;;22.30;57.10;;;;;;4996683;28;20030;-61
2022/05/21 13:01:34;;;;;;;13.68;3.92;;;22.30;57.00;;;;;;4991876;28;20041;-61
2022/05/21 13:04:00;;;;;;;13.55;3.70;;;22.30;56.90;;;;;;4993632;28;20601;-61
2022/05/21 13:06:28;;;;;;;12.57;3.67;;;22.30;56.90;;;;;;5008733;28;20034;-61
2022/05/21 13:08:53;;;;;;;14.60;3.42;;;22.30;56.80;;;;;;4994283;28;20030;-61
2022/05/21 13:11:23;;;;;;;11.00;3.30;;;22.40;56.80;;;;;;4998247;28;20037;-62
2022/05/21 13:14:00;;;;;;;11.60;3.38;;;22.40;56.80;;;;;;5016518;28;20033;-61
2022/05/21 13:16:26;;;;;;;13.93;3.40;;;22.40;56.70;;;;;;5036570;28;20044;-62
2022/05/21 13:19:05;;;;;;;10.73;3.55;;;22.40;56.70;;;;;;5054157;28;20018;-61
2022/05/21 13:21:51;;;;;;;13.13;3.15;;;22.40;56.60;;;;;;5031950;28;20041;-61
2022/05/21 13:24:45;;;;;;;12.93;3.67;;;22.40;56.60;;;;;;5042092;28;20545;-61
2022/05/21 13:27:20;;;;;;;14.50;3.40;;;22.40;56.50;;;;;;5035829;28;20203;-61